DOC weather

Dornoch Airfield
Dornoch, Scotland, United Kingdom

Public forecast

Using degrees Celsius for public forecast. Weather courtesy of forecast.io.

METAR (pilot weather report)

Closest report is Inverness Airport, 19.6 nm (36.3 km) S. Retrieved 2019/05/24 18:20 UTC (20 minutes ago):

EGPE 241820Z 26009KT 9999 FEW029 BKN042 11/07 Q1017

TAF (pilot weather forecast)

Forecast is more than 12 hours old.

Closest forecast is RAF Kinloss, 19.8 nm (36.7 km) SE. Retrieved 2011/10/06 06:15 UTC (8 years ago):

TAF TAF EGQK 060601Z 0606/0618 27015G25KT 9999 SCT030 TEMPO 0606/0618 7000 SHRA SCT022 PROB30 TEMPO 0609/0616 27025G32KT 4000 +SHRA SCT014CB BECMG 0614/0617 30020G30KT